Time;durP1;ratioP1;P1;durP2;ratioP2;P2;SDS_P1;SDS_P2;PMS_P1;PMS_P2;Temp;Humidity;BMP_temperature;BMP_pressure;BME280_temperature;BME280_humidity;BME280_pressure;Samples;Min_cycle;Max_cycle;Signal;HPM_P1;HPM_P2
2022/03/22 00:01:12;;;;;;;62.65;32.78;;;205.20;819.20;;;;;;5097023;28;20098;-57
2022/03/22 00:03:37;;;;;;;56.08;30.52;;;205.20;819.20;;;;;;5097409;28;20111;-61
2022/03/22 00:06:03;;;;;;;58.47;31.63;;;205.20;819.20;;;;;;5097286;28;20442;-60
2022/03/22 00:08:29;;;;;;;59.85;33.35;;;205.10;819.20;;;;;;5097089;28;20107;-60
2022/03/22 00:10:55;;;;;;;70.22;35.40;;;205.20;819.20;;;;;;5097145;28;20145;-61
2022/03/22 00:13:21;;;;;;;90.38;46.63;;;205.10;819.20;;;;;;5096991;28;20101;-59
2022/03/22 00:15:47;;;;;;;104.57;51.53;;;205.10;819.20;;;;;;5097194;28;20450;-57
2022/03/22 00:18:13;;;;;;;104.65;56.60;;;205.10;819.20;;;;;;5097061;28;20099;-57
2022/03/22 00:20:39;;;;;;;110.68;56.70;;;205.00;844.80;;;;;;5097133;28;20426;-60
2022/03/22 00:23:05;;;;;;;112.55;58.75;;;205.10;819.20;;;;;;5096884;28;20036;-61
2022/03/22 00:25:31;;;;;;;106.88;56.30;;;204.90;844.80;;;;;;5096955;28;20093;-57
2022/03/22 00:27:57;;;;;;;118.60;58.95;;;204.90;844.80;;;;;;5096971;28;20028;-56
2022/03/22 00:30:32;;;;;;;109.95;56.05;;;204.90;844.80;;;;;;5096852;28;20020;-57
2022/03/22 00:33:04;;;;;;;116.65;58.65;;;204.80;844.80;;;;;;5096816;28;20088;-59
2022/03/22 00:35:36;;;;;;;110.32;58.58;;;204.90;844.80;;;;;;5097277;28;20023;-58
2022/03/22 00:38:06;;;;;;;125.22;62.05;;;204.80;844.80;;;;;;5096716;28;20157;-62
2022/03/22 00:40:32;;;;;;;145.38;65.50;;;204.80;844.80;;;;;;5096617;28;20106;-57
2022/03/22 00:42:59;;;;;;;141.90;69.22;;;204.80;844.80;;;;;;5096330;28;20476;-61
2022/03/22 00:45:27;;;;;;;139.30;65.15;;;204.80;844.80;;;;;;5096643;28;20377;-57
2022/03/22 00:47:55;;;;;;;125.10;62.35;;;180.10;844.80;;;;;;5096398;28;20028;-58
2022/03/22 00:50:23;;;;;;;118.35;58.75;;;180.10;844.80;;;;;;5096486;28;20093;-58
2022/03/22 00:52:49;;;;;;;114.50;56.30;;;180.10;870.40;;;;;;5096007;28;20028;-57
2022/03/22 00:55:15;;;;;;;106.30;54.63;;;180.00;870.40;;;;;;5096131;28;20037;-58
2022/03/22 00:57:42;;;;;;;107.22;50.97;;;180.00;870.40;;;;;;5096436;28;20047;-58
2022/03/22 01:00:12;;;;;;;92.97;45.60;;;180.00;870.40;;;;;;5096002;28;20118;-57
2022/03/22 01:02:42;;;;;;;86.18;43.05;;;180.00;870.40;;;;;;5096441;28;20024;-61
2022/03/22 01:05:14;;;;;;;82.85;38.88;;;180.00;870.40;;;;;;5096193;28;20112;-58
2022/03/22 01:07:43;;;;;;;80.05;40.42;;;179.90;870.40;;;;;;5095972;28;20020;-61
2022/03/22 01:10:11;;;;;;;72.80;37.17;;;180.00;870.40;;;;;;5095976;28;20028;-58
2022/03/22 01:12:39;;;;;;;76.95;38.17;;;179.90;870.40;;;;;;5096071;28;20024;-60
2022/03/22 01:15:10;;;;;;;71.47;36.80;;;179.90;870.40;;;;;;5095824;28;20031;-57
2022/03/22 01:17:39;;;;;;;81.05;38.45;;;179.90;870.40;;;;;;5095711;28;20077;-61
2022/03/22 01:20:09;;;;;;;67.07;34.75;;;179.80;870.40;;;;;;5095995;28;20110;-61
2022/03/22 01:22:38;;;;;;;69.38;34.50;;;179.80;870.40;;;;;;5096018;28;20370;-57
2022/03/22 01:25:07;;;;;;;61.78;33.22;;;179.80;870.40;;;;;;5095566;28;20024;-58
2022/03/22 01:27:32;;;;;;;60.92;32.72;;;179.80;870.40;;;;;;5095641;28;20486;-56
2022/03/22 01:29:58;;;;;;;66.25;33.67;;;179.80;870.40;;;;;;5095705;28;20072;-56
2022/03/22 01:32:24;;;;;;;59.28;31.48;;;179.80;870.40;;;;;;5095497;28;20046;-58
2022/03/22 01:34:50;;;;;;;60.83;31.55;;;179.80;870.40;;;;;;5095236;28;20031;-59
2022/03/22 01:37:16;;;;;;;55.38;30.25;;;179.70;870.40;;;;;;5095597;28;20114;-60
2022/03/22 01:39:41;;;;;;;49.95;27.20;;;179.70;870.40;;;;;;5095537;28;20016;-57
2022/03/22 01:42:07;;;;;;;49.65;28.20;;;179.70;870.40;;;;;;5095337;28;20458;-57
2022/03/22 01:44:33;;;;;;;49.40;27.48;;;179.70;870.40;;;;;;5095070;28;20028;-57
2022/03/22 01:47:03;;;;;;;54.50;28.67;;;179.70;870.40;;;;;;5094972;28;20036;-58
2022/03/22 01:49:29;;;;;;;54.35;28.70;;;179.70;870.40;;;;;;5095456;28;20024;-61
2022/03/22 01:51:55;;;;;;;62.13;30.45;;;179.70;870.40;;;;;;5095085;28;20069;-61
2022/03/22 01:54:21;;;;;;;58.55;30.95;;;179.60;870.40;;;;;;5094741;28;20046;-61
2022/03/22 01:56:49;;;;;;;64.53;32.67;;;179.60;870.40;;;;;;5094921;28;20017;-58
2022/03/22 01:59:15;;;;;;;65.90;34.58;;;179.70;870.40;;;;;;5095311;28;20031;-61
2022/03/22 02:07:13;;;;;;;61.13;32.25;;;179.60;870.40;;;;;;5095224;28;20390;-57
2022/03/22 02:09:38;;;;;;;59.85;30.98;;;179.60;870.40;;;;;;5094911;28;20082;-58
2022/03/22 02:12:05;;;;;;;55.72;31.00;;;179.60;870.40;;;;;;5094966;28;20028;-62
2022/03/22 02:14:30;;;;;;;63.63;33.92;;;179.60;870.40;;;;;;5094522;28;20111;-60
2022/03/22 02:16:56;;;;;;;68.03;36.53;;;179.60;896.00;;;;;;5094822;28;20059;-63
2022/03/22 02:19:22;;;;;;;68.65;34.72;;;179.50;870.40;;;;;;5094309;28;20020;-58
2022/03/22 02:21:54;;;;;;;74.97;35.45;;;179.60;870.40;;;;;;5094747;28;20032;-57
2022/03/22 02:24:20;;;;;;;67.97;34.78;;;179.50;921.60;;;;;;5094706;28;20460;-58
2022/03/22 02:26:46;;;;;;;124.57;47.67;;;179.50;921.60;;;;;;5094731;28;20024;-64
2022/03/22 02:29:11;;;;;;;77.57;37.25;;;179.60;1024.00;;;;;;5094812;28;20415;-58
2022/03/22 02:31:38;;;;;;;66.68;35.55;;;179.50;947.20;;;;;;5094656;28;20042;-58
2022/03/22 02:34:04;;;;;;;65.75;33.25;;;179.50;947.20;;;;;;5094339;28;20474;-62
2022/03/22 02:36:29;;;;;;;56.33;29.77;;;179.50;921.60;;;;;;5094160;28;20030;-63
2022/03/22 02:38:55;;;;;;;56.28;29.65;;;179.60;921.60;;;;;;5094457;28;20074;-57
2022/03/22 02:41:24;;;;;;;46.00;26.63;;;179.60;896.00;;;;;;5094612;28;20020;-63
2022/03/22 02:43:51;;;;;;;54.28;27.75;;;179.60;896.00;;;;;;5094340;28;20531;-64
2022/03/22 02:46:17;;;;;;;63.72;29.05;;;179.60;896.00;;;;;;5094335;28;20461;-58
2022/03/22 02:48:44;;;;;;;53.13;28.77;;;179.60;896.00;;;;;;5094135;28;20466;-63
2022/03/22 02:51:10;;;;;;;49.83;26.77;;;179.60;896.00;;;;;;5094190;28;20031;-58
2022/03/22 02:53:36;;;;;;;50.17;26.73;;;179.60;896.00;;;;;;5094187;28;20050;-57
2022/03/22 02:56:02;;;;;;;49.03;26.38;;;179.60;896.00;;;;;;5094060;28;20366;-58
2022/03/22 02:58:29;;;;;;;47.15;25.52;;;179.60;896.00;;;;;;5094168;28;20492;-61
2022/03/22 03:00:54;;;;;;;46.50;26.20;;;179.60;896.00;;;;;;5093908;28;20098;-61
2022/03/22 03:03:22;;;;;;;42.03;24.30;;;179.60;896.00;;;;;;5094110;28;20580;-61
2022/03/22 03:05:49;;;;;;;43.80;23.70;;;179.60;896.00;;;;;;5094298;28;20035;-61
2022/03/22 03:08:16;;;;;;;36.53;21.48;;;179.60;896.00;;;;;;5092948;28;20052;-58
2022/03/22 03:10:42;;;;;;;33.38;19.30;;;179.50;896.00;;;;;;5094114;28;20028;-57
2022/03/22 03:13:08;;;;;;;33.72;19.17;;;179.50;896.00;;;;;;5093916;28;20036;-61
2022/03/22 03:15:34;;;;;;;28.25;17.17;;;179.50;896.00;;;;;;5094015;28;20024;-62
2022/03/22 03:18:00;;;;;;;31.55;18.13;;;179.40;896.00;;;;;;5094197;28;20054;-59
2022/03/22 03:20:26;;;;;;;28.55;17.85;;;179.30;921.60;;;;;;5093888;28;20024;-57
2022/03/22 03:22:52;;;;;;;32.58;18.02;;;179.30;921.60;;;;;;5093692;28;20035;-57
2022/03/22 03:25:18;;;;;;;30.42;17.13;;;179.30;921.60;;;;;;5093386;28;20522;-61
2022/03/22 03:27:44;;;;;;;33.78;18.13;;;179.30;921.60;;;;;;5093890;28;20069;-61
2022/03/22 03:30:11;;;;;;;32.63;17.05;;;179.30;921.60;;;;;;5093891;28;20084;-57
2022/03/22 03:32:37;;;;;;;29.88;17.38;;;179.30;921.60;;;;;;5093659;28;20085;-58
2022/03/22 03:35:04;;;;;;;31.77;17.45;;;179.30;921.60;;;;;;5093907;28;20031;-61
2022/03/22 03:37:33;;;;;;;28.92;17.05;;;179.40;921.60;;;;;;5093555;28;20105;-58
2022/03/22 03:39:59;;;;;;;35.30;18.13;;;179.30;896.00;;;;;;5093443;28;20524;-62
2022/03/22 03:42:25;;;;;;;31.85;18.13;;;179.30;921.60;;;;;;5093649;28;20024;-61
2022/03/22 03:47:35;;;;;;;36.78;19.95;;;179.30;921.60;;;;;;5093674;28;20378;-62
2022/03/22 03:50:05;;;;;;;36.65;19.05;;;179.30;921.60;;;;;;5093389;28;20028;-57
2022/03/22 03:52:36;;;;;;;40.83;20.67;;;179.30;921.60;;;;;;5093541;28;20366;-57
2022/03/22 03:55:04;;;;;;;39.13;20.13;;;179.30;921.60;;;;;;5093368;28;20036;-57
2022/03/22 03:57:30;;;;;;;37.63;21.15;;;179.20;921.60;;;;;;5093603;28;20046;-61
2022/03/22 03:59:56;;;;;;;32.50;19.40;;;179.20;921.60;;;;;;5093322;28;20044;-59
2022/03/22 04:02:23;;;;;;;33.80;19.13;;;179.20;921.60;;;;;;5094089;28;20024;-61
2022/03/22 04:04:52;;;;;;;35.63;20.90;;;179.20;921.60;;;;;;5093596;28;20099;-61
2022/03/22 04:07:19;;;;;;;36.85;20.92;;;179.20;921.60;;;;;;5093556;28;20040;-61
2022/03/22 04:09:45;;;;;;;44.08;22.15;;;179.20;921.60;;;;;;5093485;28;20034;-61
2022/03/22 04:12:14;;;;;;;39.13;22.60;;;179.20;921.60;;;;;;5093439;28;20016;-60
2022/03/22 04:14:40;;;;;;;41.50;23.95;;;154.50;921.60;;;;;;5093333;28;20118;-58
2022/03/22 04:17:08;;;;;;;39.63;22.55;;;154.50;921.60;;;;;;5093552;28;20107;-60
2022/03/22 04:19:35;;;;;;;39.95;23.00;;;154.50;921.60;;;;;;5096305;28;20024;-57
2022/03/22 04:22:02;;;;;;;43.78;23.20;;;154.50;947.20;;;;;;5097040;28;20081;-57
2022/03/22 04:24:28;;;;;;;46.53;24.85;;;154.50;921.60;;;;;;5096996;28;20056;-56
2022/03/22 04:26:54;;;;;;;44.53;25.55;;;154.50;947.20;;;;;;5096511;28;20056;-61
2022/03/22 04:34:49;;;;;;;45.05;23.75;;;154.40;947.20;;;;;;5097219;28;20165;-57
2022/03/22 04:37:15;;;;;;;42.85;21.08;;;154.40;947.20;;;;;;5096959;28;20032;-62
2022/03/22 04:39:45;;;;;;;38.60;20.45;;;154.40;947.20;;;;;;5096738;28;20031;-57
2022/03/22 04:42:15;;;;;;;33.03;18.65;;;154.30;947.20;;;;;;5096940;28;20035;-61
2022/03/22 04:44:41;;;;;;;35.08;19.25;;;154.30;947.20;;;;;;5096608;28;20024;-57
2022/03/22 04:47:07;;;;;;;32.67;18.80;;;154.30;947.20;;;;;;5097194;28;20031;-60
2022/03/22 04:49:33;;;;;;;37.25;19.33;;;154.30;947.20;;;;;;5096669;28;20527;-60
2022/03/22 04:57:27;;;;;;;39.85;22.30;;;154.20;947.20;;;;;;5096627;28;20039;-58
2022/03/22 04:59:54;;;;;;;44.47;23.25;;;154.20;947.20;;;;;;5096133;28;20048;-57
2022/03/22 05:02:20;;;;;;;49.03;22.67;;;154.20;947.20;;;;;;5096397;28;20159;-57
2022/03/22 05:04:46;;;;;;;48.67;22.55;;;154.20;947.20;;;;;;5096297;28;20086;-57
2022/03/22 05:07:12;;;;;;;60.92;24.20;;;154.20;972.80;;;;;;5096208;28;20413;-62
2022/03/22 05:09:38;;;;;;;52.25;25.13;;;154.10;972.80;;;;;;5096268;28;20055;-61
2022/03/22 05:12:04;;;;;;;54.22;25.35;;;154.20;972.80;;;;;;5096387;28;20470;-61
2022/03/22 05:14:32;;;;;;;60.28;26.73;;;154.10;972.80;;;;;;5095785;28;20036;-61
2022/03/22 05:16:58;;;;;;;64.30;26.98;;;154.10;998.40;;;;;;5096050;28;20024;-60
2022/03/22 05:19:25;;;;;;;59.58;28.23;;;154.10;998.40;;;;;;5096279;28;20050;-61
2022/03/22 05:21:52;;;;;;;65.82;30.35;;;154.10;998.40;;;;;;5095859;28;20021;-60
2022/03/22 05:24:18;;;;;;;67.95;32.35;;;154.10;998.40;;;;;;5095860;28;20381;-61
2022/03/22 05:26:45;;;;;;;65.70;32.28;;;154.10;998.40;;;;;;5095509;28;20482;-56
2022/03/22 05:29:13;;;;;;;67.97;29.45;;;154.00;998.40;;;;;;5095750;28;20389;-56
2022/03/22 05:31:39;;;;;;;55.30;26.08;;;154.00;972.80;;;;;;5094934;28;20024;-60
2022/03/22 05:34:06;;;;;;;45.22;22.67;;;154.00;972.80;;;;;;5095628;28;20094;-61
2022/03/22 05:36:32;;;;;;;53.63;23.45;;;153.90;972.80;;;;;;5095505;28;20020;-57
2022/03/22 05:38:58;;;;;;;52.85;27.45;;;153.90;972.80;;;;;;5095481;28;20035;-61
2022/03/22 05:41:24;;;;;;;77.20;39.00;;;153.90;972.80;;;;;;5095359;28;20028;-56
2022/03/22 05:43:50;;;;;;;104.10;47.55;;;153.80;972.80;;;;;;5095587;28;20054;-57
2022/03/22 05:46:17;;;;;;;103.93;56.42;;;153.80;972.80;;;;;;5095528;28;20044;-57
2022/03/22 05:48:44;;;;;;;92.63;48.03;;;153.80;998.40;;;;;;5095452;28;20031;-60
2022/03/22 05:51:10;;;;;;;78.38;46.88;;;153.90;998.40;;;;;;5095072;28;20376;-57
2022/03/22 05:53:36;;;;;;;77.00;41.92;;;153.80;972.80;;;;;;5095084;28;20044;-60
2022/03/22 05:56:03;;;;;;;395.98;198.63;;;153.80;972.80;;;;;;5095123;28;20050;-57
2022/03/22 05:58:28;;;;;;;448.92;229.88;;;153.80;998.40;;;;;;5095332;28;20028;-57
2022/03/22 06:00:55;;;;;;;543.25;293.67;;;153.80;998.40;;;;;;5095019;28;20044;-61
2022/03/22 06:03:20;;;;;;;402.38;202.30;;;153.80;998.40;;;;;;5095461;28;20370;-57
2022/03/22 06:05:46;;;;;;;206.35;103.57;;;153.80;998.40;;;;;;5095133;28;20028;-57
2022/03/22 06:08:12;;;;;;;141.90;74.50;;;153.80;998.40;;;;;;5094823;28;20085;-56
2022/03/22 06:10:38;;;;;;;136.38;71.25;;;153.90;998.40;;;;;;5094755;28;20099;-60
2022/03/22 06:13:04;;;;;;;125.47;61.95;;;153.90;998.40;;;;;;5095055;28;20024;-60
2022/03/22 06:15:31;;;;;;;112.00;54.83;;;154.00;998.40;;;;;;5095090;28;20028;-61
2022/03/22 06:18:00;;;;;;;95.28;46.65;;;154.00;1024.00;;;;;;5095478;28;20024;-62
2022/03/22 06:20:34;;;;;;;83.10;42.72;;;154.00;1024.00;;;;;;5094804;28;20082;-57
2022/03/22 06:23:01;;;;;;;88.38;43.00;;;154.00;1024.00;;;;;;5094858;28;20039;-56
2022/03/22 06:25:27;;;;;;;97.55;49.97;;;154.00;1049.60;;;;;;5094709;28;20035;-61
2022/03/22 06:27:54;;;;;;;119.18;61.10;;;154.00;1049.60;;;;;;5094641;28;20028;-61
2022/03/22 06:30:21;;;;;;;117.05;61.65;;;154.00;1049.60;;;;;;5094632;28;20024;-60
2022/03/22 06:32:57;;;;;;;133.30;66.68;;;154.10;1049.60;;;;;;5094466;28;20043;-60
2022/03/22 06:35:26;;;;;;;127.97;65.55;;;154.10;1049.60;;;;;;5094250;28;20021;-61
2022/03/22 06:37:52;;;;;;;144.07;71.93;;;154.20;1049.60;;;;;;5094054;28;20027;-57
2022/03/22 06:40:20;;;;;;;134.38;64.55;;;154.20;1049.60;;;;;;5094341;28;20085;-61
2022/03/22 06:42:47;;;;;;;99.63;47.72;;;154.40;1024.00;;;;;;5094049;28;20032;-60
2022/03/22 06:45:13;;;;;;;86.85;43.78;;;179.20;1024.00;;;;;;5094379;28;20040;-61
2022/03/22 06:47:41;;;;;;;67.53;35.55;;;179.20;1024.00;;;;;;5094133;28;20024;-57
2022/03/22 06:50:11;;;;;;;65.45;30.70;;;179.30;1024.00;;;;;;5094292;28;20028;-57
2022/03/22 06:52:37;;;;;;;64.88;32.13;;;179.50;998.40;;;;;;5094549;28;20078;-58
2022/03/22 06:55:05;;;;;;;49.28;26.60;;;179.60;998.40;;;;;;5094205;28;20036;-57
2022/03/22 06:57:31;;;;;;;48.88;26.20;;;179.70;972.80;;;;;;5094065;28;20111;-57
2022/03/22 06:59:58;;;;;;;52.10;26.52;;;179.80;972.80;;;;;;5093976;28;20048;-57
2022/03/22 07:02:24;;;;;;;56.03;29.05;;;180.00;972.80;;;;;;5093179;28;20024;-60
2022/03/22 07:04:51;;;;;;;49.60;27.23;;;204.80;972.80;;;;;;5093454;28;20477;-61
2022/03/22 07:07:18;;;;;;;55.03;30.05;;;204.90;972.80;;;;;;5091086;28;20066;-59
2022/03/22 07:09:44;;;;;;;53.70;28.48;;;205.00;972.80;;;;;;5093213;28;20024;-58
2022/03/22 07:12:10;;;;;;;54.42;27.38;;;205.20;972.80;;;;;;5093401;28;20031;-59
2022/03/22 07:14:38;;;;;;;49.55;25.45;;;205.40;972.80;;;;;;5090515;28;20027;-61
2022/03/22 07:17:05;;;;;;;43.35;23.92;;;205.50;947.20;;;;;;5093250;28;20016;-61
2022/03/22 07:19:31;;;;;;;41.42;24.55;;;205.60;947.20;;;;;;5093394;28;20111;-61
2022/03/22 07:21:59;;;;;;;40.10;24.17;;;230.40;947.20;;;;;;5093937;28;20046;-60
2022/03/22 07:24:25;;;;;;;42.63;24.33;;;230.60;921.60;;;;;;5093588;28;20560;-56
2022/03/22 07:26:51;;;;;;;43.95;23.33;;;230.70;921.60;;;;;;5093825;28;20025;-56
2022/03/22 07:29:16;;;;;;;39.28;21.60;;;230.90;921.60;;;;;;5093878;28;20027;-60
2022/03/22 07:31:42;;;;;;;42.03;23.20;;;231.00;921.60;;;;;;5093691;28;20028;-56
2022/03/22 07:34:11;;;;;;;40.70;21.67;;;231.10;921.60;;;;;;5092569;28;20115;-57
2022/03/22 07:36:39;;;;;;;35.22;21.00;;;231.30;947.20;;;;;;5093445;28;20026;-60
2022/03/22 07:39:09;;;;;;;32.92;19.13;;;256.00;921.60;;;;;;5093464;28;20470;-64
2022/03/22 07:41:39;;;;;;;34.33;20.63;;;256.20;896.00;;;;;;5092941;28;20111;-62
2022/03/22 07:44:06;;;;;;;33.72;20.58;;;256.40;896.00;;;;;;5093518;28;20035;-57
2022/03/22 07:46:33;;;;;;;32.25;18.75;;;256.60;870.40;;;;;;5092511;28;20031;-57
2022/03/22 07:52:58;;;;;;;34.08;18.05;;;256.70;870.40;;;;;;5093519;28;20495;-57
2022/03/22 07:54:33;;;;;;;31.80;18.60;;;281.60;896.00;;;;;;5096421;28;20101;-58
2022/03/22 07:56:59;;;;;;;34.35;19.58;;;281.80;870.40;;;;;;5097477;28;20050;-57
2022/03/22 07:59:27;;;;;;;35.58;18.95;;;281.90;870.40;;;;;;5097322;28;20020;-57
2022/03/22 08:01:53;;;;;;;30.45;18.08;;;282.10;870.40;;;;;;5097479;28;20032;-58
2022/03/22 08:04:19;;;;;;;39.40;17.52;;;282.20;844.80;;;;;;5097762;28;20070;-58
2022/03/22 08:06:45;;;;;;;26.83;16.35;;;282.30;844.80;;;;;;5097330;28;20023;-62
2022/03/22 08:09:10;;;;;;;34.08;16.27;;;282.50;844.80;;;;;;5097159;28;20044;-58
2022/03/22 08:11:36;;;;;;;29.77;16.55;;;307.30;870.40;;;;;;5096880;28;20394;-57
2022/03/22 08:14:04;;;;;;;31.55;17.20;;;307.40;844.80;;;;;;5097123;28;20521;-57
2022/03/22 08:16:30;;;;;;;27.90;16.77;;;307.60;844.80;;;;;;5096930;28;20024;-62
2022/03/22 08:18:55;;;;;;;26.48;16.35;;;307.80;844.80;;;;;;5078398;28;20040;-57
2022/03/22 08:21:21;;;;;;;31.95;16.20;;;307.90;819.20;;;;;;5096721;28;20020;-57
2022/03/22 08:23:47;;;;;;;31.92;17.45;;;308.00;819.20;;;;;;5096917;28;20470;-58
2022/03/22 08:26:14;;;;;;;39.20;20.20;;;308.10;819.20;;;;;;5097122;28;20031;-57
2022/03/22 08:28:40;;;;;;;40.55;20.60;;;332.80;844.80;;;;;;5096997;28;20070;-57
2022/03/22 08:31:06;;;;;;;30.20;17.27;;;332.90;819.20;;;;;;5096745;28;20032;-58
2022/03/22 08:33:32;;;;;;;32.17;19.23;;;333.00;844.80;;;;;;5097207;28;20040;-57
2022/03/22 08:35:58;;;;;;;29.35;18.80;;;333.20;819.20;;;;;;5096875;28;20028;-58
2022/03/22 08:38:27;;;;;;;31.83;17.20;;;333.20;819.20;;;;;;5096662;28;20179;-57
2022/03/22 08:40:54;;;;;;;26.23;16.60;;;333.40;793.60;;;;;;5096578;28;20035;-58
2022/03/22 08:43:20;;;;;;;27.65;15.55;;;333.50;768.00;;;;;;5096624;28;20474;-58
2022/03/22 08:45:45;;;;;;;20.35;12.50;;;333.60;768.00;;;;;;5096749;28;20029;-57
2022/03/22 08:48:12;;;;;;;18.17;12.38;;;333.70;742.40;;;;;;5096978;28;20116;-58
2022/03/22 08:50:43;;;;;;;18.42;12.45;;;358.40;742.40;;;;;;5078304;28;20020;-57
2022/03/22 08:53:10;;;;;;;21.67;11.43;;;358.50;768.00;;;;;;5096266;28;20075;-59
2022/03/22 08:55:36;;;;;;;17.42;10.75;;;358.60;742.40;;;;;;5096592;28;20108;-58
2022/03/22 08:58:05;;;;;;;15.43;10.13;;;358.70;742.40;;;;;;5096368;28;20047;-57
2022/03/22 09:00:33;;;;;;;17.77;10.07;;;358.70;742.40;;;;;;5096067;28;20044;-58
2022/03/22 09:03:00;;;;;;;15.82;10.32;;;358.80;716.80;;;;;;5096125;28;20107;-57
2022/03/22 09:08:10;;;;;;;14.95;10.13;;;358.90;716.80;;;;;;5096047;28;20078;-59
2022/03/22 09:10:36;;;;;;;12.82;9.15;;;359.10;716.80;;;;;;5096127;28;20481;-58
2022/03/22 09:13:03;;;;;;;17.75;9.77;;;359.10;691.20;;;;;;5096130;28;20050;-58
2022/03/22 09:15:30;;;;;;;15.55;9.57;;;359.30;691.20;;;;;;5078189;28;20031;-58
2022/03/22 09:17:57;;;;;;;20.25;9.40;;;359.30;691.20;;;;;;5096112;28;20111;-58
2022/03/22 09:20:24;;;;;;;15.38;10.20;;;384.00;665.60;;;;;;5096104;28;20070;-60
2022/03/22 09:22:52;;;;;;;14.45;10.57;;;384.10;665.60;;;;;;5095947;28;20047;-59
2022/03/22 09:25:18;;;;;;;17.30;10.02;;;384.20;691.20;;;;;;5095838;28;20498;-57
2022/03/22 09:27:44;;;;;;;16.02;10.52;;;384.30;665.60;;;;;;5095802;28;20046;-57
2022/03/22 09:30:12;;;;;;;17.35;9.85;;;384.40;691.20;;;;;;5095682;28;20020;-59
2022/03/22 09:32:39;;;;;;;19.58;10.95;;;384.50;665.60;;;;;;5095806;28;20028;-59
2022/03/22 09:35:07;;;;;;;19.83;9.75;;;384.60;665.60;;;;;;5095725;28;20424;-57
2022/03/22 09:37:44;;;;;;;14.98;10.07;;;384.60;640.00;;;;;;5095960;28;20461;-57
2022/03/22 09:40:12;;;;;;;12.85;9.48;;;384.70;640.00;;;;;;5095530;28;20370;-60
2022/03/22 09:42:42;;;;;;;13.70;10.07;;;384.80;640.00;;;;;;5095548;28;20029;-58
2022/03/22 09:45:10;;;;;;;17.98;9.75;;;384.80;640.00;;;;;;5095539;28;20085;-58
2022/03/22 09:47:38;;;;;;;20.15;10.50;;;384.90;640.00;;;;;;5095394;28;20531;-59
2022/03/22 09:50:07;;;;;;;16.92;9.95;;;409.60;665.60;;;;;;5095343;28;20370;-58
2022/03/22 09:52:34;;;;;;;15.48;10.02;;;409.70;665.60;;;;;;5095259;28;20099;-57
2022/03/22 09:55:00;;;;;;;15.52;10.93;;;409.80;665.60;;;;;;5095089;28;20112;-58
2022/03/22 09:57:28;;;;;;;21.13;11.80;;;409.80;665.60;;;;;;5095346;28;20102;-58
2022/03/22 09:59:54;;;;;;;15.93;11.00;;;409.90;665.60;;;;;;5095098;28;20074;-58
2022/03/22 10:02:27;;;;;;;20.38;12.18;;;410.00;665.60;;;;;;5095130;28;20462;-58
2022/03/22 10:04:53;;;;;;;21.27;11.88;;;410.10;665.60;;;;;;5095106;28;20390;-58
2022/03/22 10:07:21;;;;;;;17.38;10.52;;;410.20;665.60;;;;;;5094817;28;20036;-58
2022/03/22 10:09:58;;;;;;;17.45;10.38;;;410.20;665.60;;;;;;5094791;28;20102;-58
2022/03/22 10:12:34;;;;;;;15.55;10.18;;;410.30;665.60;;;;;;5095015;28;20024;-58
2022/03/22 10:15:07;;;;;;;20.13;12.27;;;410.40;640.00;;;;;;5094834;28;20504;-57
2022/03/22 10:17:32;;;;;;;17.27;11.93;;;410.40;640.00;;;;;;5094879;28;20362;-58
2022/03/22 10:19:58;;;;;;;18.55;10.82;;;410.50;640.00;;;;;;5095245;28;20024;-58
2022/03/22 10:22:25;;;;;;;16.02;11.35;;;410.50;640.00;;;;;;5094967;28;20055;-58
2022/03/22 10:24:55;;;;;;;17.08;11.50;;;435.20;640.00;;;;;;5094767;28;20093;-58
2022/03/22 10:27:29;;;;;;;16.88;11.60;;;435.20;640.00;;;;;;5095282;28;20442;-58
2022/03/22 10:29:56;;;;;;;24.75;10.93;;;435.30;640.00;;;;;;5094857;28;20519;-58
2022/03/22 10:32:41;;;;;;;16.85;12.15;;;435.30;640.00;;;;;;5094734;28;20106;-57
2022/03/22 10:35:17;;;;;;;18.00;12.77;;;435.40;614.40;;;;;;5094841;28;20123;-58
2022/03/22 10:37:47;;;;;;;23.15;12.27;;;435.40;614.40;;;;;;5094768;28;20016;-58
2022/03/22 10:40:23;;;;;;;19.23;11.50;;;435.40;614.40;;;;;;5094601;28;20085;-58
2022/03/22 10:42:51;;;;;;;17.58;11.20;;;435.40;614.40;;;;;;5094638;28;20430;-58
2022/03/22 10:45:17;;;;;;;18.65;11.85;;;435.50;614.40;;;;;;5094373;28;20032;-58
2022/03/22 10:47:43;;;;;;;17.73;12.35;;;435.60;614.40;;;;;;5094175;28;20050;-58
2022/03/22 10:50:09;;;;;;;23.88;12.77;;;435.70;614.40;;;;;;5094710;28;20039;-58
2022/03/22 10:52:49;;;;;;;20.50;12.93;;;435.70;614.40;;;;;;5094245;28;20040;-58
2022/03/22 10:55:20;;;;;;;17.08;11.23;;;435.80;614.40;;;;;;5094481;28;20020;-58
2022/03/22 10:57:51;;;;;;;24.55;12.00;;;435.80;614.40;;;;;;5094124;28;20034;-58
2022/03/22 11:00:17;;;;;;;18.58;11.25;;;435.90;614.40;;;;;;5094019;28;20044;-57
2022/03/22 11:02:49;;;;;;;16.52;10.80;;;435.90;588.80;;;;;;5094026;28;20490;-63
2022/03/22 11:05:15;;;;;;;21.30;12.45;;;435.90;614.40;;;;;;5094098;28;20047;-61
2022/03/22 11:07:43;;;;;;;17.85;10.57;;;436.00;614.40;;;;;;5092608;28;20047;-61
2022/03/22 11:10:09;;;;;;;17.10;10.48;;;436.00;588.80;;;;;;5094182;28;20458;-58
2022/03/22 11:12:35;;;;;;;18.48;9.65;;;436.00;588.80;;;;;;5093943;28;20024;-58
2022/03/22 11:15:03;;;;;;;17.63;10.15;;;436.10;588.80;;;;;;5094000;28;20024;-60
2022/03/22 11:17:35;;;;;;;16.40;9.68;;;460.80;588.80;;;;;;5093760;28;20026;-57
2022/03/22 11:20:06;;;;;;;17.17;10.75;;;460.80;614.40;;;;;;5093144;28;20393;-59
2022/03/22 11:22:32;;;;;;;22.05;11.50;;;460.80;588.80;;;;;;5091209;28;20018;-57
2022/03/22 11:25:16;;;;;;;17.45;10.25;;;460.90;588.80;;;;;;5093215;28;20019;-59
2022/03/22 11:27:42;;;;;;;13.60;10.15;;;460.90;614.40;;;;;;5091957;28;20095;-60
2022/03/22 11:30:08;;;;;;;17.42;10.13;;;460.90;614.40;;;;;;5090462;28;20016;-57
2022/03/22 11:35:25;;;;;;;;;;;461.10;614.40;;;;;;5092493;28;20043;-58
2022/03/22 11:38:00;;;;;;;19.00;10.75;;;461.10;588.80;;;;;;5090761;28;19908;-57
2022/03/22 11:43:13;;;;;;;22.15;12.05;;;461.20;588.80;;;;;;5091372;28;20035;-58
2022/03/22 11:45:51;;;;;;;19.58;11.38;;;461.20;588.80;;;;;;5093170;28;20024;-57
2022/03/22 11:48:18;;;;;;;19.55;11.52;;;461.20;588.80;;;;;;5094021;28;20484;-58
2022/03/22 11:50:45;;;;;;;28.98;12.60;;;461.20;588.80;;;;;;5093199;28;20032;-57
2022/03/22 11:53:19;;;;;;;18.98;11.00;;;461.10;588.80;;;;;;5092695;28;20512;-57
2022/03/22 11:55:49;;;;;;;19.55;11.13;;;461.20;588.80;;;;;;5092172;28;20059;-60
2022/03/22 11:58:15;;;;;;;20.35;10.82;;;461.10;588.80;;;;;;5092269;28;20111;-59
2022/03/22 12:00:51;;;;;;;18.02;10.60;;;461.20;588.80;;;;;;5091868;28;20115;-61
2022/03/22 12:03:22;;;;;;;18.67;11.48;;;461.20;588.80;;;;;;5089740;28;20035;-59
2022/03/22 12:05:47;;;;;;;20.27;11.15;;;461.20;588.80;;;;;;5091999;28;20466;-58
2022/03/22 12:08:14;;;;;;;20.50;11.82;;;461.20;588.80;;;;;;5091732;28;20078;-61
2022/03/22 12:10:45;;;;;;;16.25;11.25;;;461.30;588.80;;;;;;5091921;28;20106;-57
2022/03/22 12:13:12;;;;;;;18.92;12.02;;;461.30;588.80;;;;;;5091593;28;20035;-58
2022/03/22 12:15:38;;;;;;;16.45;12.00;;;461.30;614.40;;;;;;5089239;28;20053;-57
2022/03/22 12:18:04;;;;;;;20.45;11.02;;;461.30;588.80;;;;;;5091859;28;20028;-57
2022/03/22 12:20:29;;;;;;;17.33;11.35;;;461.50;588.80;;;;;;5091724;28;20107;-60
2022/03/22 12:22:59;;;;;;;20.60;11.63;;;461.50;614.40;;;;;;5091605;28;20023;-58
2022/03/22 12:25:28;;;;;;;23.60;11.40;;;461.50;614.40;;;;;;5091559;28;20035;-57
2022/03/22 12:27:57;;;;;;;21.20;10.45;;;461.60;614.40;;;;;;5089199;28;20102;-59
2022/03/22 12:30:31;;;;;;;20.38;11.48;;;461.60;614.40;;;;;;5091531;28;20020;-57
2022/03/22 12:33:02;;;;;;;20.40;11.10;;;461.60;614.40;;;;;;5090139;28;20020;-57
2022/03/22 12:35:29;;;;;;;16.48;11.48;;;461.60;588.80;;;;;;5091505;28;20057;-59
2022/03/22 12:37:57;;;;;;;17.88;10.90;;;461.60;588.80;;;;;;5091615;28;20020;-57